createdAt,value
2018-07-10T00:02:10.473Z,4.17
2018-07-10T00:04:42.100Z,9.60
2018-07-10T00:07:15.920Z,2.67
2018-07-10T00:09:46.871Z,5.50
2018-07-10T00:12:14.000Z,7.70
2018-07-10T00:14:41.152Z,4.80
2018-07-10T00:17:08.277Z,3.53
2018-07-10T00:19:35.425Z,3.20
2018-07-10T00:22:02.545Z,6.20
2018-07-10T00:24:29.728Z,3.40
2018-07-10T00:26:56.852Z,5.57
2018-07-10T00:29:23.953Z,5.40
2018-07-10T00:31:51.133Z,4.10
2018-07-10T00:34:18.348Z,3.93
2018-07-10T00:36:45.457Z,5.77
2018-07-10T00:39:12.569Z,4.03
2018-07-10T00:41:40.793Z,6.77
2018-07-10T00:44:08.381Z,5.50
2018-07-10T00:46:36.686Z,4.97
2018-07-10T00:49:03.821Z,4.60
2018-07-10T00:51:32.128Z,6.07
2018-07-10T00:53:59.243Z,6.70
2018-07-10T00:56:26.357Z,6.83
2018-07-10T00:58:54.424Z,8.40
2018-07-10T01:01:22.657Z,5.07
2018-07-10T01:03:50.384Z,6.93
2018-07-10T01:06:17.530Z,4.70
2018-07-10T01:08:45.117Z,4.67
2018-07-10T01:11:13.406Z,4.80
2018-07-10T01:13:41.596Z,7.63
2018-07-10T01:16:08.715Z,3.40
2018-07-10T01:18:37.461Z,6.47
2018-07-10T01:21:05.461Z,7.53
2018-07-10T01:23:32.586Z,3.50
2018-07-10T01:25:59.707Z,5.23
2018-07-10T01:28:27.339Z,6.23
2018-07-10T01:30:54.466Z,5.00
2018-07-10T01:33:21.603Z,8.70
2018-07-10T01:35:48.721Z,3.70
2018-07-10T01:38:15.849Z,5.83
2018-07-10T01:40:42.998Z,6.23
2018-07-10T01:43:10.145Z,2.87
2018-07-10T01:45:37.261Z,3.57
2018-07-10T01:48:04.439Z,7.73
2018-07-10T01:50:31.546Z,4.40
2018-07-10T01:52:58.669Z,6.87
2018-07-10T01:55:25.869Z,4.83
2018-07-10T01:57:53.544Z,5.33
2018-07-10T02:00:26.085Z,5.80
2018-07-10T02:02:53.200Z,5.70
2018-07-10T02:05:20.311Z,9.83
2018-07-10T02:07:47.444Z,6.33
2018-07-10T02:10:14.623Z,6.23
2018-07-10T02:12:41.826Z,4.87
2018-07-10T02:15:08.905Z,7.80
2018-07-10T02:17:36.057Z,6.97
2018-07-10T02:20:09.768Z,6.43
2018-07-10T02:22:36.918Z,9.37
2018-07-10T02:25:04.037Z,5.43
2018-07-10T02:27:31.234Z,6.80
2018-07-10T02:29:58.337Z,9.20
2018-07-10T02:32:25.448Z,7.00
2018-07-10T02:34:52.632Z,4.13
2018-07-10T02:37:20.293Z,4.43
2018-07-10T02:39:47.420Z,11.20
2018-07-10T02:42:14.544Z,8.13
2018-07-10T02:44:41.837Z,7.17
2018-07-10T02:47:09.350Z,6.90
2018-07-10T02:49:36.470Z,5.10
2018-07-10T02:52:03.605Z,6.20
2018-07-10T02:54:32.685Z,5.30
2018-07-10T02:56:59.802Z,3.90
2018-07-10T02:59:30.685Z,8.73
2018-07-10T03:01:57.856Z,6.07
2018-07-10T03:04:24.971Z,7.93
2018-07-10T03:06:52.081Z,4.83
2018-07-10T03:09:19.203Z,8.83
2018-07-10T03:11:46.317Z,4.50
2018-07-10T03:14:13.417Z,3.70
2018-07-10T03:16:40.535Z,6.00
2018-07-10T03:19:09.321Z,2.90
2018-07-10T03:21:36.440Z,5.20
2018-07-10T03:24:03.571Z,2.50
2018-07-10T03:26:30.685Z,3.73
2018-07-10T03:28:57.812Z,9.03
2018-07-10T03:31:24.925Z,11.73
2018-07-10T03:33:52.058Z,2.90
2018-07-10T03:36:19.188Z,2.60
2018-07-10T03:38:46.303Z,3.53
2018-07-10T03:41:13.492Z,3.93
2018-07-10T03:43:40.653Z,5.40
2018-07-10T03:46:07.754Z,6.33
2018-07-10T03:48:34.895Z,7.13
2018-07-10T03:51:02.269Z,3.47
2018-07-10T03:53:29.388Z,5.10
2018-07-10T03:55:56.536Z,6.63
2018-07-10T03:58:23.654Z,6.00
2018-07-10T04:00:50.807Z,3.33
2018-07-10T04:03:18.854Z,5.00
2018-07-10T04:05:45.972Z,8.20
2018-07-10T04:08:13.484Z,6.30
2018-07-10T04:10:40.625Z,9.30
2018-07-10T04:13:09.804Z,4.70
2018-07-10T04:15:37.543Z,7.10
2018-07-10T04:18:06.232Z,5.13
2018-07-10T04:20:39.850Z,7.27
2018-07-10T04:23:06.961Z,4.70
2018-07-10T04:25:34.687Z,5.03
2018-07-10T04:28:06.997Z,5.00
2018-07-10T04:30:36.589Z,3.67
2018-07-10T04:33:03.906Z,4.57
2018-07-10T04:35:31.029Z,4.67
2018-07-10T04:37:58.156Z,4.77
2018-07-10T04:40:25.844Z,9.77
2018-07-10T04:42:58.867Z,5.30
2018-07-10T04:45:28.577Z,4.60
2018-07-10T04:47:56.253Z,5.53
2018-07-10T04:50:24.244Z,5.07
2018-07-10T04:52:52.741Z,3.30
2018-07-10T04:55:20.032Z,5.67
2018-07-10T04:57:51.060Z,4.87
2018-07-10T05:00:18.214Z,9.50
2018-07-10T05:02:45.366Z,7.90
2018-07-10T05:05:12.475Z,4.10
2018-07-10T05:07:39.613Z,8.07
2018-07-10T05:10:06.721Z,4.30
2018-07-10T05:12:33.939Z,3.80
2018-07-10T05:15:01.060Z,3.23
2018-07-10T05:17:28.185Z,3.00
2018-07-10T05:19:55.754Z,3.57
2018-07-10T05:22:22.870Z,4.20
2018-07-10T05:24:50.082Z,4.20
2018-07-10T05:27:17.220Z,4.43
2018-07-10T05:29:44.637Z,4.13
2018-07-10T05:32:12.645Z,2.63
2018-07-10T05:34:40.193Z,4.30
2018-07-10T05:37:07.924Z,3.00
2018-07-10T05:39:35.128Z,4.10
2018-07-10T05:42:02.270Z,3.93
2018-07-10T05:44:29.808Z,1.83
2018-07-10T05:46:57.725Z,4.10
2018-07-10T05:49:24.862Z,4.13
2018-07-10T05:51:52.579Z,6.63
2018-07-10T05:54:20.106Z,5.50
2018-07-10T05:56:47.201Z,6.37
2018-07-10T05:59:14.359Z,7.30
2018-07-10T06:01:41.685Z,2.87
2018-07-10T06:04:11.775Z,6.80
2018-07-10T06:06:38.880Z,5.10
2018-07-10T06:09:06.621Z,2.60
2018-07-10T06:11:34.165Z,5.20
2018-07-10T06:14:01.291Z,3.40
2018-07-10T06:16:28.398Z,4.03
2018-07-10T06:18:56.533Z,5.33
2018-07-10T06:21:24.194Z,2.67
2018-07-10T06:23:51.807Z,2.30
2018-07-10T06:26:18.934Z,8.20
2018-07-10T06:28:49.555Z,3.13
2018-07-10T06:31:17.133Z,2.10
2018-07-10T06:33:45.380Z,4.63
2018-07-10T06:36:17.337Z,6.07
2018-07-10T06:38:46.840Z,2.83
2018-07-10T06:41:13.971Z,1.83
2018-07-10T06:43:43.261Z,2.70
2018-07-10T06:46:10.873Z,1.53
2018-07-10T06:48:40.945Z,2.30
2018-07-10T06:51:09.381Z,2.67
2018-07-10T06:53:36.590Z,1.50
2018-07-10T06:56:03.625Z,9.57
2018-07-10T06:58:32.252Z,2.70
2018-07-10T07:00:59.354Z,2.03
2018-07-10T07:03:26.552Z,2.50
2018-07-10T07:05:53.665Z,3.23
2018-07-10T07:08:21.699Z,2.57
2018-07-10T07:10:48.798Z,2.20
2018-07-10T07:13:15.920Z,3.23
2018-07-10T07:15:43.161Z,3.27
2018-07-10T07:18:10.280Z,3.27
2018-07-10T07:20:37.431Z,5.90
2018-07-10T07:23:04.516Z,3.33
2018-07-10T07:25:31.633Z,4.40
2018-07-10T07:27:58.740Z,16.13
2018-07-10T07:30:25.887Z,3.03
2018-07-10T07:32:53.308Z,5.83
2018-07-10T07:35:20.449Z,5.90
2018-07-10T07:37:47.609Z,3.80
2018-07-10T07:40:14.833Z,2.70
2018-07-10T07:42:42.018Z,4.27
2018-07-10T07:45:09.167Z,6.00
2018-07-10T07:47:36.285Z,6.80
2018-07-10T07:50:03.393Z,4.60
2018-07-10T07:52:31.605Z,6.73
2018-07-10T07:55:00.145Z,2.47
2018-07-10T07:57:27.439Z,5.60
2018-07-10T07:59:54.521Z,3.97
2018-07-10T08:02:22.555Z,2.20
2018-07-10T08:04:49.778Z,13.60
2018-07-10T08:07:17.785Z,3.67
2018-07-10T08:09:44.872Z,5.27
2018-07-10T08:12:12.025Z,2.63
2018-07-10T08:14:39.158Z,3.43
2018-07-10T08:17:06.377Z,7.30
2018-07-10T08:19:33.472Z,3.73
2018-07-10T08:22:00.595Z,4.00
2018-07-10T08:24:27.713Z,3.40
2018-07-10T08:26:56.046Z,4.10
2018-07-10T08:29:23.418Z,3.40
2018-07-10T08:31:50.849Z,2.10
2018-07-10T08:34:17.941Z,2.03
2018-07-10T08:36:45.149Z,6.20
2018-07-10T08:39:12.249Z,7.43
2018-07-10T08:41:47.090Z,5.47
2018-07-10T08:44:14.944Z,8.20
2018-07-10T08:46:42.321Z,3.90
2018-07-10T08:49:10.877Z,3.60
2018-07-10T08:51:38.052Z,5.53
2018-07-10T08:54:05.297Z,3.23
2018-07-10T08:56:32.411Z,2.07
2018-07-10T08:58:59.681Z,3.87
2018-07-10T09:01:27.130Z,8.43
2018-07-10T09:03:54.262Z,4.20
2018-07-10T09:06:21.360Z,6.03
2018-07-10T09:08:48.484Z,5.00
2018-07-10T09:11:15.631Z,9.10
2018-07-10T09:13:42.725Z,2.50
2018-07-10T09:16:09.846Z,2.50
2018-07-10T09:18:36.996Z,9.50
2018-07-10T09:21:04.109Z,3.60
2018-07-10T09:23:31.537Z,3.30
2018-07-10T09:26:00.157Z,4.17
2018-07-10T09:28:27.678Z,4.53
2018-07-10T09:30:54.792Z,4.77
2018-07-10T09:33:21.903Z,5.23
2018-07-10T09:35:49.016Z,4.50
2018-07-10T09:38:16.173Z,2.23
2018-07-10T09:40:44.449Z,3.10
2018-07-10T09:43:11.585Z,2.47
2018-07-10T09:45:38.925Z,4.37
2018-07-10T09:48:07.033Z,4.73
2018-07-10T09:50:34.128Z,1.83
2018-07-10T09:53:02.761Z,6.50
2018-07-10T09:55:30.087Z,5.80
2018-07-10T09:57:57.937Z,10.00
2018-07-10T10:00:31.273Z,5.03
2018-07-10T10:02:58.360Z,4.80
2018-07-10T10:05:25.965Z,2.63
2018-07-10T10:07:53.069Z,3.47
2018-07-10T10:10:20.161Z,4.37
2018-07-10T10:12:47.273Z,7.27
2018-07-10T10:15:14.397Z,6.93
2018-07-10T10:17:41.510Z,4.53
2018-07-10T10:20:08.694Z,2.50
2018-07-10T10:22:35.792Z,3.60
2018-07-10T10:25:03.180Z,7.10
2018-07-10T10:27:30.781Z,3.27
2018-07-10T10:29:58.420Z,3.53
2018-07-10T10:32:25.547Z,8.13
2018-07-10T10:34:52.851Z,3.37
2018-07-10T10:37:20.359Z,7.13
2018-07-10T10:39:47.995Z,2.07
2018-07-10T10:42:16.510Z,4.50
2018-07-10T10:44:43.712Z,1.83
2018-07-10T10:47:11.312Z,2.10
2018-07-10T10:49:38.525Z,8.77
2018-07-10T10:52:05.997Z,3.23
2018-07-10T10:54:33.177Z,3.90
2018-07-10T10:57:00.277Z,9.83
2018-07-10T10:59:27.484Z,5.07
2018-07-10T11:01:55.408Z,1.57
2018-07-10T11:04:22.554Z,6.30
2018-07-10T11:06:49.677Z,3.60
2018-07-10T11:09:16.784Z,4.17
2018-07-10T11:11:43.938Z,5.30
2018-07-10T11:14:11.110Z,6.90
2018-07-10T11:16:38.645Z,6.03
2018-07-10T11:19:08.118Z,5.60
2018-07-10T11:21:39.168Z,4.63
2018-07-10T11:24:06.633Z,5.23
2018-07-10T11:26:50.557Z,5.27
2018-07-10T11:29:17.661Z,5.33
2018-07-10T11:31:44.909Z,11.33
2018-07-10T11:34:12.035Z,7.47
2018-07-10T11:36:39.164Z,5.80
2018-07-10T11:39:08.066Z,6.17
2018-07-10T11:41:38.097Z,4.13
2018-07-10T11:44:07.211Z,10.47
2018-07-10T11:46:34.324Z,6.33
2018-07-10T11:49:01.422Z,8.87
2018-07-10T11:51:28.703Z,4.37
2018-07-10T11:53:55.785Z,5.60
2018-07-10T11:56:22.936Z,5.30
2018-07-10T11:58:50.077Z,5.60
2018-07-10T12:01:17.188Z,7.00
2018-07-10T12:03:44.380Z,6.03
2018-07-10T12:06:11.525Z,3.63
2018-07-10T12:08:38.852Z,3.77
2018-07-10T12:11:11.397Z,6.33
2018-07-10T12:13:38.533Z,2.77
2018-07-10T12:16:05.689Z,6.43
2018-07-10T12:18:32.805Z,3.83
2018-07-10T12:21:00.018Z,5.20
2018-07-10T12:23:27.104Z,3.60
2018-07-10T12:25:54.220Z,3.13
2018-07-10T12:28:21.836Z,5.20
2018-07-10T12:30:48.959Z,3.30
2018-07-10T12:33:16.313Z,10.67
2018-07-10T12:35:43.408Z,4.97
2018-07-10T12:38:12.110Z,3.67
2018-07-10T12:40:39.237Z,4.00
2018-07-10T12:43:06.365Z,6.50
2018-07-10T12:45:33.569Z,6.30
2018-07-10T12:48:00.707Z,3.60
2018-07-10T12:50:27.877Z,4.67
2018-07-10T12:52:54.991Z,6.37
2018-07-10T12:55:22.708Z,4.60
2018-07-10T12:57:49.829Z,7.73
2018-07-10T13:00:16.937Z,3.90
2018-07-10T13:02:46.555Z,3.73
2018-07-10T13:05:14.361Z,6.60
2018-07-10T13:07:41.480Z,4.97
2018-07-10T13:10:08.768Z,6.10
2018-07-10T13:12:35.986Z,9.33
2018-07-10T13:15:03.084Z,10.60
2018-07-10T13:17:30.644Z,10.60
2018-07-10T13:20:00.181Z,8.37
2018-07-10T13:22:27.284Z,9.47
2018-07-10T13:24:54.397Z,5.90
2018-07-10T13:27:21.505Z,11.63
2018-07-10T13:29:49.065Z,9.10
2018-07-10T13:32:16.193Z,10.77
2018-07-10T13:34:43.322Z,10.00
2018-07-10T13:37:10.472Z,6.03
2018-07-10T13:39:37.749Z,10.67
2018-07-10T13:42:04.888Z,10.40
2018-07-10T13:44:32.037Z,5.80
2018-07-10T13:46:59.146Z,11.50
2018-07-10T13:49:26.304Z,11.33
2018-07-10T13:51:53.431Z,14.57
2018-07-10T13:54:20.585Z,13.20
2018-07-10T13:56:47.772Z,12.63
2018-07-10T13:59:14.846Z,10.40
2018-07-10T14:01:41.952Z,12.03
2018-07-10T14:04:09.126Z,9.33
2018-07-10T14:06:36.269Z,10.03
2018-07-10T14:09:04.353Z,12.10
2018-07-10T14:11:31.480Z,13.37
2018-07-10T14:13:58.609Z,11.17
2018-07-10T14:16:25.764Z,11.80
2018-07-10T14:18:54.960Z,13.20
2018-07-10T14:21:22.074Z,17.00
2018-07-10T14:23:49.204Z,15.20
2018-07-10T14:26:16.322Z,11.43
2018-07-10T14:28:43.429Z,18.20
2018-07-10T14:31:10.553Z,14.47
2018-07-10T14:33:37.662Z,13.10
2018-07-10T14:36:04.797Z,8.67
2018-07-10T14:38:31.913Z,11.17
2018-07-10T14:41:02.589Z,19.10
2018-07-10T14:43:31.824Z,15.87
2018-07-10T14:46:00.492Z,13.33
2018-07-10T14:48:28.036Z,12.43
2018-07-10T14:50:56.036Z,15.70
2018-07-10T14:53:23.175Z,17.67
2018-07-10T14:55:50.309Z,10.03
2018-07-10T14:58:17.476Z,8.67
2018-07-10T15:00:44.713Z,13.87
2018-07-10T15:03:11.838Z,12.37
2018-07-10T15:05:38.932Z,13.70
2018-07-10T15:08:06.151Z,12.30
2018-07-10T15:10:33.161Z,12.00
2018-07-10T15:13:00.272Z,10.90
2018-07-10T15:15:27.455Z,9.80
2018-07-10T15:18:00.088Z,11.37
2018-07-10T15:20:27.195Z,15.60
2018-07-10T15:22:54.304Z,17.70
2018-07-10T15:25:21.471Z,15.63
2018-07-10T15:27:48.596Z,13.87
2018-07-10T15:30:15.700Z,14.83
2018-07-10T15:32:42.827Z,13.90
2018-07-10T15:35:10.005Z,12.57
2018-07-10T15:37:37.124Z,16.33
2018-07-10T15:40:04.257Z,8.37
2018-07-10T15:42:31.384Z,12.13
2018-07-10T15:44:58.496Z,20.67
2018-07-10T15:47:25.609Z,15.13
2018-07-10T15:49:52.756Z,12.90
2018-07-10T15:52:20.270Z,12.53
2018-07-10T15:54:47.480Z,12.80
2018-07-10T15:57:14.865Z,13.87
2018-07-10T15:59:41.990Z,17.43
2018-07-10T16:02:09.161Z,13.80
2018-07-10T16:04:36.382Z,13.80
2018-07-10T16:07:03.497Z,10.87
2018-07-10T16:09:30.860Z,15.53
2018-07-10T16:12:00.681Z,15.20
2018-07-10T16:14:28.452Z,13.80
2018-07-10T16:16:55.565Z,11.20
2018-07-10T16:19:25.021Z,7.10
2018-07-10T16:21:55.059Z,14.30
2018-07-10T16:24:22.449Z,10.50
2018-07-10T16:26:49.686Z,11.87
2018-07-10T16:29:17.672Z,8.90
2018-07-10T16:31:44.814Z,13.37
2018-07-10T16:34:11.909Z,11.70
2018-07-10T16:36:39.134Z,10.73
2018-07-10T16:39:06.257Z,12.60
2018-07-10T16:41:38.787Z,10.13
2018-07-10T16:44:06.065Z,14.63
2018-07-10T16:46:33.532Z,10.93
2018-07-10T16:49:05.366Z,12.00
2018-07-10T16:51:38.469Z,10.90
2018-07-10T16:54:05.643Z,15.27
2018-07-10T16:56:32.774Z,11.40
2018-07-10T16:58:59.901Z,11.70
2018-07-10T17:01:27.513Z,10.50
2018-07-10T17:03:54.769Z,16.10
2018-07-10T17:06:22.863Z,13.77
2018-07-10T17:08:50.229Z,13.67
2018-07-10T17:11:17.352Z,10.57
2018-07-10T17:13:44.549Z,10.67
2018-07-10T17:16:23.777Z,10.13
2018-07-10T17:18:52.429Z,11.70
2018-07-10T17:21:19.525Z,11.27
2018-07-10T17:23:47.221Z,11.57
2018-07-10T17:26:14.345Z,15.07
2018-07-10T17:28:41.969Z,11.50
2018-07-10T17:31:09.077Z,12.13
2018-07-10T17:33:36.176Z,14.80
2018-07-10T17:36:03.341Z,13.93
2018-07-10T17:38:30.656Z,12.90
2018-07-10T17:40:57.748Z,10.83
2018-07-10T17:43:24.901Z,10.77
2018-07-10T17:45:52.085Z,15.27
2018-07-10T17:48:19.193Z,13.00
2018-07-10T17:50:46.326Z,16.87
2018-07-10T17:53:13.409Z,18.83
2018-07-10T17:55:40.532Z,12.73
2018-07-10T17:58:07.653Z,11.50
2018-07-10T18:00:35.290Z,16.53
2018-07-10T18:03:02.435Z,16.10
2018-07-10T18:05:29.565Z,17.67
2018-07-10T18:07:56.929Z,20.30
2018-07-10T18:10:24.462Z,16.70
2018-07-10T18:12:51.662Z,16.67
2018-07-10T18:15:18.772Z,22.83
2018-07-10T18:17:45.974Z,67.97
2018-07-10T18:20:13.081Z,33.27
2018-07-10T18:22:40.606Z,24.33
2018-07-10T18:25:07.714Z,21.83
2018-07-10T18:27:34.813Z,29.40
2018-07-10T18:30:01.906Z,14.10
2018-07-10T18:32:29.062Z,10.57
2018-07-10T18:34:56.158Z,17.50
2018-07-10T18:37:23.289Z,12.07
2018-07-10T18:39:50.417Z,11.00
2018-07-10T18:42:17.718Z,13.67
2018-07-10T18:44:44.721Z,11.20
2018-07-10T18:47:11.832Z,14.77
2018-07-10T18:49:39.028Z,11.33
2018-07-10T18:52:06.149Z,12.30
2018-07-10T18:54:38.809Z,10.10
2018-07-10T18:57:08.453Z,13.10
2018-07-10T18:59:36.548Z,16.63
2018-07-10T19:02:05.457Z,10.20
2018-07-10T19:04:51.336Z,14.97
2018-07-10T19:07:18.472Z,9.83
2018-07-10T19:09:45.737Z,8.67
2018-07-10T19:12:13.721Z,10.27
2018-07-10T19:14:41.236Z,10.60
2018-07-10T19:17:13.081Z,10.37
2018-07-10T19:19:44.396Z,11.97
2018-07-10T19:22:11.724Z,14.87
2018-07-10T19:24:40.294Z,10.87
2018-07-10T19:27:07.413Z,17.03
2018-07-10T19:29:42.073Z,12.03
2018-07-10T19:32:09.253Z,10.57
2018-07-10T19:34:36.495Z,10.90
2018-07-10T19:37:03.545Z,11.17
2018-07-10T19:39:30.681Z,11.13
2018-07-10T19:41:57.825Z,12.53
2018-07-10T19:44:24.961Z,10.57
2018-07-10T19:46:52.166Z,10.07
2018-07-10T19:49:21.005Z,13.67
2018-07-10T19:51:48.709Z,12.90
2018-07-10T19:54:15.898Z,11.83
2018-07-10T19:56:42.977Z,14.40
2018-07-10T19:59:11.076Z,11.80
2018-07-10T20:01:38.512Z,8.63
2018-07-10T20:04:08.526Z,11.70
2018-07-10T20:06:37.510Z,11.17
2018-07-10T20:09:05.214Z,14.23
2018-07-10T20:11:39.376Z,8.23
2018-07-10T20:14:06.746Z,15.63
2018-07-10T20:16:39.295Z,12.13
2018-07-10T20:19:08.581Z,11.00
2018-07-10T20:21:55.519Z,9.27
2018-07-10T20:24:23.042Z,8.93
2018-07-10T20:27:56.797Z,10.33
2018-07-10T20:30:27.078Z,7.40
2018-07-10T20:33:14.007Z,9.60
2018-07-10T20:35:49.968Z,12.90
2018-07-10T20:38:17.664Z,13.23
2018-07-10T20:40:44.808Z,8.40
2018-07-10T20:43:14.219Z,8.00
2018-07-10T20:45:47.144Z,8.17
2018-07-10T20:48:21.580Z,10.17
2018-07-10T20:51:03.773Z,10.23
2018-07-10T20:53:36.487Z,9.80
2018-07-10T20:56:07.405Z,12.80
2018-07-10T20:58:35.585Z,8.30
2018-07-10T21:01:03.073Z,10.13
2018-07-10T21:04:01.085Z,9.03
2018-07-10T21:06:53.177Z,9.27
2018-07-10T21:09:20.669Z,8.23
2018-07-10T21:12:20.621Z,7.93
2018-07-10T21:14:50.425Z,11.83
2018-07-10T21:17:18.212Z,8.97
2018-07-10T21:19:53.057Z,11.87
2018-07-10T21:22:25.070Z,8.03
2018-07-10T21:24:56.157Z,8.53
2018-07-10T22:50:25.603Z,7.27
2018-07-10T22:52:53.856Z,7.33
2018-07-10T22:55:23.220Z,6.63
2018-07-10T22:57:50.632Z,7.90
2018-07-10T23:00:23.061Z,7.37
2018-07-10T23:02:50.169Z,7.93
2018-07-10T23:05:17.277Z,7.27
2018-07-10T23:07:44.377Z,8.33
2018-07-10T23:10:11.462Z,6.60
2018-07-10T23:12:38.637Z,9.30
2018-07-10T23:15:05.761Z,6.37
2018-07-10T23:17:32.881Z,8.53
2018-07-10T23:19:59.980Z,6.93
2018-07-10T23:23:01.077Z,7.00
2018-07-10T23:25:28.190Z,7.10
2018-07-10T23:27:57.345Z,7.40
2018-07-10T23:30:24.924Z,7.00
2018-07-10T23:32:52.041Z,6.70
2018-07-10T23:35:19.145Z,6.83
2018-07-10T23:37:51.029Z,6.80
2018-07-10T23:40:18.802Z,7.57
2018-07-10T23:42:45.961Z,7.00
2018-07-10T23:45:15.078Z,6.80
2018-07-10T23:47:43.501Z,7.90
2018-07-10T23:50:13.997Z,6.87
2018-07-10T23:52:46.830Z,6.40
2018-07-10T23:55:14.035Z,7.07
2018-07-10T23:57:41.207Z,7.00
